Time;durP1;ratioP1;P1;durP2;ratioP2;P2;SDS_P1;SDS_P2;PMS_P1;PMS_P2;Temp;Humidity;BMP_temperature;BMP_pressure;BME280_temperature;BME280_humidity;BME280_pressure;Samples;Min_cycle;Max_cycle;Signal;HPM_P1;HPM_P2
2023/09/02 00:00:54;;;;;;;10.70;9.60;;;;;;;21.11;50.18;95375.59;5070619;28;20028;-83
2023/09/02 00:03:19;;;;;;;10.27;8.90;;;;;;;21.08;50.63;95378.59;5089786;28;20156;-83
2023/09/02 00:05:45;;;;;;;10.85;9.75;;;;;;;21.03;50.31;95368.91;5088752;28;20028;-84
2023/09/02 00:08:10;;;;;;;9.90;8.90;;;;;;;20.97;50.85;95364.53;5089657;28;20070;-84
2023/09/02 00:10:35;;;;;;;10.77;9.20;;;;;;;20.97;50.88;95375.72;5088575;28;20123;-83
2023/09/02 00:13:03;;;;;;;10.25;9.15;;;;;;;20.85;51.02;95369.25;5089113;28;20032;-83
2023/09/02 00:15:28;;;;;;;10.75;8.75;;;;;;;20.86;51.32;95377.13;5088216;28;20466;-83
2023/09/02 00:17:53;;;;;;;10.65;9.45;;;;;;;20.83;51.20;95371.78;5089153;28;20024;-82
2023/09/02 00:20:20;;;;;;;9.95;8.95;;;;;;;20.80;51.09;95369.97;5089146;28;20099;-83
2023/09/02 00:22:46;;;;;;;11.02;9.52;;;;;;;20.76;51.41;95370.22;5070149;28;20034;-84
2023/09/02 00:25:11;;;;;;;11.20;9.70;;;;;;;20.69;51.21;95373.41;5089408;28;20039;-83
2023/09/02 00:27:37;;;;;;;10.45;9.43;;;;;;;20.65;51.70;95365.28;5088222;28;20016;-83
2023/09/02 00:30:03;;;;;;;10.27;9.27;;;;;;;20.49;51.71;95340.75;5089434;28;20546;-83
2023/09/02 00:32:29;;;;;;;10.07;9.07;;;;;;;20.60;51.73;95368.00;5070065;28;20028;-84
2023/09/02 00:34:54;;;;;;;10.40;9.40;;;;;;;20.63;51.68;95372.59;5088646;28;20305;-85
2023/09/02 00:37:20;;;;;;;10.70;9.27;;;;;;;20.56;51.80;95364.66;5088300;28;20019;-84
2023/09/02 00:39:45;;;;;;;9.57;8.63;;;;;;;20.51;52.02;95377.31;5069942;28;20107;-81
2023/09/02 00:42:12;;;;;;;9.50;8.60;;;;;;;20.47;51.84;95373.19;5070639;28;20489;-83
2023/09/02 00:44:37;;;;;;;10.68;9.35;;;;;;;20.47;51.96;95373.94;5069454;28;20110;-82
2023/09/02 00:47:03;;;;;;;11.07;9.48;;;;;;;20.45;52.28;95378.47;5070664;28;20095;-81
2023/09/02 00:49:29;;;;;;;10.13;8.70;;;;;;;20.45;52.40;95375.69;5087751;28;20117;-83
2023/09/02 00:51:54;;;;;;;10.05;9.02;;;;;;;20.47;52.23;95378.78;5070015;28;20020;-84
2023/09/02 00:54:19;;;;;;;10.63;9.52;;;;;;;20.33;52.32;95369.22;5087898;28;20024;-84
2023/09/02 00:56:45;;;;;;;10.35;9.35;;;;;;;20.35;52.44;95384.22;5088278;28;20111;-82
2023/09/02 00:59:11;;;;;;;10.45;9.38;;;;;;;20.33;52.45;95381.16;5088127;28;20028;-84
2023/09/02 01:01:40;;;;;;;10.73;9.23;;;;;;;20.27;52.48;95380.31;5069525;28;20110;-84
2023/09/02 01:04:05;;;;;;;10.13;9.13;;;;;;;20.22;52.53;95378.22;5088945;28;20031;-83
2023/09/02 01:06:31;;;;;;;10.65;8.88;;;;;;;20.13;52.73;95378.38;5087377;28;20032;-84
2023/09/02 01:08:57;;;;;;;10.38;9.27;;;;;;;20.13;52.54;95373.56;5089117;28;20395;-85
2023/09/02 01:11:22;;;;;;;11.68;9.70;;;;;;;20.13;52.47;95373.56;5070098;28;20122;-84
2023/09/02 01:13:48;;;;;;;11.07;8.98;;;;;;;20.10;52.70;95380.13;5088100;28;20469;-83
2023/09/02 01:16:13;;;;;;;10.48;9.38;;;;;;;20.07;52.36;95367.16;5087857;28;20020;-84
2023/09/02 01:18:39;;;;;;;10.20;9.20;;;;;;;20.05;52.56;95372.44;5069254;28;20321;-83
2023/09/02 01:21:35;;;;;;;10.30;9.20;;;;;;;20.03;52.94;95377.75;5088496;28;20028;-84
2023/09/02 01:24:18;;;;;;;10.23;9.20;;;;;;;20.01;52.75;95379.47;5086645;28;20101;-84
2023/09/02 01:27:15;;;;;;;10.63;9.52;;;;;;;19.95;52.85;95376.63;5087722;28;20474;-84
2023/09/02 01:29:51;;;;;;;10.90;9.77;;;;;;;19.91;53.18;95369.75;5069790;28;20415;-83
2023/09/02 01:32:17;;;;;;;10.48;9.35;;;;;;;19.88;53.13;95375.03;5087067;28;20032;-82
2023/09/02 01:34:44;;;;;;;10.23;9.23;;;;;;;19.91;53.21;95375.31;5069475;28;20449;-83
2023/09/02 01:37:10;;;;;;;10.82;9.73;;;;;;;19.84;53.32;95377.28;5068547;28;20592;-82
2023/09/02 01:39:37;;;;;;;10.57;9.55;;;;;;;19.80;53.36;95373.16;5069431;28;20077;-83
2023/09/02 01:42:04;;;;;;;10.43;9.35;;;;;;;19.81;53.52;95378.22;5086802;28;20074;-83
2023/09/02 01:44:31;;;;;;;11.48;9.85;;;;;;;19.81;53.32;95380.25;5069266;28;20774;-83
2023/09/02 01:46:57;;;;;;;10.63;9.00;;;;;;;19.75;53.22;95374.59;5069094;28;20050;-84
2023/09/02 01:49:23;;;;;;;10.35;9.25;;;;;;;19.73;53.22;95377.13;5068571;28;20028;-84
2023/09/02 01:51:48;;;;;;;10.50;9.45;;;;;;;19.69;53.56;95373.00;5069301;28;20035;-84
2023/09/02 01:54:14;;;;;;;10.82;9.60;;;;;;;19.74;53.74;95392.59;5068377;28;20555;-83
2023/09/02 01:56:40;;;;;;;10.05;9.15;;;;;;;19.73;53.46;95396.66;5069209;28;20028;-83
2023/09/02 01:59:05;;;;;;;10.52;9.43;;;;;;;19.76;53.38;95395.66;5086302;28;20489;-82
2023/09/02 02:01:31;;;;;;;10.75;9.65;;;;;;;19.74;53.38;95392.59;5087598;28;20020;-84
2023/09/02 02:04:23;;;;;;;11.35;10.10;;;;;;;19.70;53.78;95394.81;5068489;28;20032;-84
2023/09/02 02:06:51;;;;;;;10.40;9.30;;;;;;;19.72;53.46;95394.31;5068261;28;20105;-83
2023/09/02 02:09:26;;;;;;;10.43;9.13;;;;;;;19.65;53.88;95392.72;5069494;28;20016;-83
2023/09/02 02:11:51;;;;;;;12.18;9.65;;;;;;;19.64;53.87;95402.34;5068016;28;20028;-83
2023/09/02 02:14:17;;;;;;;10.38;9.38;;;;;;;19.62;53.75;95390.91;5068115;28;20030;-83
2023/09/02 02:16:42;;;;;;;10.10;9.10;;;;;;;19.61;53.97;95398.50;5086404;28;20046;-83
2023/09/02 02:19:08;;;;;;;11.85;9.35;;;;;;;19.53;54.19;95397.34;5086339;28;20103;-83
2023/09/02 02:21:33;;;;;;;9.77;8.70;;;;;;;19.47;54.29;95392.94;5087057;28;20478;-84
2023/09/02 02:23:58;;;;;;;12.00;9.43;;;;;;;19.47;54.01;95390.16;5085642;28;20044;-84
2023/09/02 02:26:24;;;;;;;10.90;9.50;;;;;;;19.44;54.40;95389.09;5087334;28;20092;-83
2023/09/02 02:28:49;;;;;;;10.07;9.07;;;;;;;19.39;54.54;95395.38;5067367;28;20429;-84
2023/09/02 02:31:14;;;;;;;11.18;9.48;;;;;;;19.36;54.47;95391.50;5086620;28;20023;-83
2023/09/02 02:33:40;;;;;;;11.00;9.23;;;;;;;19.34;54.75;95393.25;5086222;28;20124;-83
2023/09/02 02:36:09;;;;;;;11.50;10.20;;;;;;;19.37;54.26;95398.63;5086240;28;20026;-81
2023/09/02 02:38:34;;;;;;;12.73;9.93;;;;;;;19.37;54.32;95400.63;5068803;28;20110;-83
2023/09/02 02:41:00;;;;;;;10.77;9.68;;;;;;;19.34;54.53;95394.03;5086264;28;20107;-83
2023/09/02 02:43:26;;;;;;;11.18;9.98;;;;;;;19.28;54.60;95395.19;5088153;28;20103;-83
2023/09/02 02:45:55;;;;;;;11.35;10.07;;;;;;;19.20;55.06;95388.47;5100789;28;20035;-82
2023/09/02 02:48:24;;;;;;;11.40;9.65;;;;;;;19.20;55.10;95392.00;5103741;28;20084;-82
2023/09/02 02:50:49;;;;;;;11.05;9.93;;;;;;;19.16;55.03;95394.25;5093970;28;20046;-83
2023/09/02 02:53:14;;;;;;;13.02;9.38;;;;;;;19.12;54.96;95393.66;5069340;28;20585;-83
2023/09/02 02:55:41;;;;;;;11.05;9.80;;;;;;;19.05;54.90;95385.69;5087081;28;20016;-83
2023/09/02 02:58:07;;;;;;;11.13;9.95;;;;;;;19.07;55.06;95395.09;5086630;28;20034;-83
2023/09/02 03:00:32;;;;;;;10.95;9.85;;;;;;;19.05;55.38;95394.81;5068824;28;20024;-83
2023/09/02 03:02:58;;;;;;;11.07;9.52;;;;;;;19.05;55.15;95402.41;5086447;28;20479;-83
2023/09/02 03:05:23;;;;;;;12.00;10.18;;;;;;;18.99;55.15;95390.41;5069309;28;20136;-84
2023/09/02 03:07:49;;;;;;;12.98;9.80;;;;;;;18.92;55.61;95397.13;5067829;28;20074;-84
2023/09/02 03:10:14;;;;;;;11.02;9.68;;;;;;;18.94;55.43;95396.66;5086798;28;20059;-83
2023/09/02 03:12:40;;;;;;;10.38;9.30;;;;;;;18.88;55.48;95401.38;5086294;28;20397;-83
2023/09/02 03:15:06;;;;;;;13.73;9.93;;;;;;;18.86;55.60;95406.63;5067665;28;20028;-83
2023/09/02 03:17:32;;;;;;;11.48;10.27;;;;;;;18.85;55.56;95403.09;5086538;28;20116;-84
2023/09/02 03:19:58;;;;;;;10.70;9.60;;;;;;;18.77;55.61;95397.13;5085919;28;20130;-83
2023/09/02 03:22:23;;;;;;;10.60;9.57;;;;;;;18.72;55.99;95394.25;5086495;28;20023;-84
2023/09/02 03:24:55;;;;;;;10.70;9.27;;;;;;;18.73;55.78;95406.91;5085269;28;20044;-83
2023/09/02 03:27:21;;;;;;;12.13;9.85;;;;;;;18.62;56.33;95392.78;5090842;28;20481;-83
2023/09/02 03:29:50;;;;;;;12.40;9.90;;;;;;;18.64;56.60;95398.63;5071498;28;20099;-86
2023/09/02 03:32:16;;;;;;;12.90;10.00;;;;;;;18.62;56.20;95399.09;5090004;28;20474;-84
2023/09/02 03:34:41;;;;;;;12.30;10.07;;;;;;;18.58;56.46;95398.53;5090400;28;20052;-85
2023/09/02 03:37:07;;;;;;;11.00;9.50;;;;;;;18.58;56.39;95407.66;5089567;28;20099;-81
2023/09/02 03:39:33;;;;;;;10.93;9.65;;;;;;;18.50;56.37;95394.56;5090174;28;20115;-83
2023/09/02 03:41:59;;;;;;;12.45;10.35;;;;;;;18.53;56.54;95404.78;5089097;28;20024;-83
2023/09/02 03:44:25;;;;;;;10.60;9.50;;;;;;;18.51;56.55;95404.47;5090361;28;20387;-84
2023/09/02 03:46:51;;;;;;;10.40;9.30;;;;;;;18.49;56.48;95407.72;5088730;28;20073;-84
2023/09/02 03:49:16;;;;;;;11.75;9.68;;;;;;;18.46;56.71;95411.47;5071793;28;20050;-82
2023/09/02 03:51:42;;;;;;;11.85;10.55;;;;;;;18.47;56.95;95424.16;5089403;28;20537;-85
2023/09/02 03:54:08;;;;;;;13.68;10.20;;;;;;;18.50;56.88;95412.06;5071830;28;20031;-84
2023/09/02 03:56:36;;;;;;;11.52;10.13;;;;;;;18.45;57.20;95423.84;5089842;28;20090;-84
2023/09/02 03:59:03;;;;;;;13.68;10.93;;;;;;;18.40;56.98;95413.38;5089083;28;20111;-83
2023/09/02 04:01:28;;;;;;;16.42;10.95;;;;;;;18.41;57.23;95406.56;5071703;28;20024;-84
2023/09/02 04:03:53;;;;;;;12.13;10.27;;;;;;;18.35;57.02;95404.91;5088526;28;20036;-85
2023/09/02 04:06:19;;;;;;;12.65;10.65;;;;;;;18.42;57.04;95419.25;5089910;28;20442;-85
2023/09/02 04:08:44;;;;;;;11.95;9.60;;;;;;;18.42;56.81;95421.25;5088869;28;20016;-84
2023/09/02 04:11:09;;;;;;;13.85;10.93;;;;;;;18.42;57.25;95424.03;5090011;28;20024;-84
2023/09/02 04:13:35;;;;;;;12.15;10.45;;;;;;;18.34;57.03;95412.50;5088882;28;20016;-84
2023/09/02 04:16:00;;;;;;;12.43;10.25;;;;;;;18.38;57.01;95424.22;5089107;28;20028;-84
2023/09/02 04:18:26;;;;;;;11.70;10.48;;;;;;;18.42;56.99;95432.41;5089391;28;20077;-84
2023/09/02 04:20:52;;;;;;;12.25;10.95;;;;;;;18.42;57.03;95430.38;5088330;28;20438;-84
2023/09/02 04:23:21;;;;;;;12.25;9.68;;;;;;;18.39;57.21;95427.78;5089233;28;20024;-83
2023/09/02 04:25:49;;;;;;;11.93;10.30;;;;;;;18.38;57.32;95431.81;5070279;28;20471;-84
2023/09/02 04:28:15;;;;;;;12.65;10.35;;;;;;;18.41;56.90;95422.47;5089142;28;20631;-83
2023/09/02 04:30:41;;;;;;;14.30;11.10;;;;;;;18.37;57.46;95425.47;5088363;28;20045;-83
2023/09/02 04:33:07;;;;;;;13.35;10.52;;;;;;;18.38;57.37;95427.00;5088753;28;20125;-82
2023/09/02 04:35:40;;;;;;;14.23;11.15;;;;;;;18.41;57.20;95437.19;5088490;28;20475;-85
2023/09/02 04:38:06;;;;;;;;;;;;;;;18.43;57.36;95429.13;5088564;28;20024;-85
2023/09/02 04:40:41;;;;;;;15.30;10.23;;;;;;;18.42;57.52;95429.59;5089827;28;19912;-82
2023/09/02 04:43:07;;;;;;;12.27;10.20;;;;;;;18.46;57.41;95432.97;5087582;28;20042;-80
2023/09/02 04:45:37;;;;;;;13.63;10.48;;;;;;;18.45;56.98;95437.00;5088824;28;20063;-83
2023/09/02 04:48:04;;;;;;;12.18;9.85;;;;;;;18.45;56.94;95425.84;5070009;28;20052;-84
2023/09/02 04:50:31;;;;;;;13.43;10.57;;;;;;;18.59;57.08;95444.63;5069927;28;20418;-83
2023/09/02 04:52:57;;;;;;;16.35;10.90;;;;;;;18.63;56.88;95439.63;5088533;28;20130;-81
2023/09/02 04:55:25;;;;;;;12.45;10.57;;;;;;;18.66;56.81;95440.69;5087273;28;20039;-82
2023/09/02 04:57:51;;;;;;;16.50;10.98;;;;;;;18.72;57.08;95445.13;5089091;28;20490;-79
2023/09/02 05:00:17;;;;;;;16.17;10.73;;;;;;;18.75;56.89;95435.84;5069068;28;20028;-86
2023/09/02 05:02:44;;;;;;;13.15;11.75;;;;;;;18.73;57.01;95431.97;5088605;28;20028;-80
2023/09/02 05:05:10;;;;;;;12.18;10.65;;;;;;;18.76;56.35;95431.81;5087351;28;20032;-81
2023/09/02 05:07:36;;;;;;;13.55;10.88;;;;;;;18.83;56.27;95437.00;5087843;28;20048;-80
2023/09/02 05:10:01;;;;;;;13.20;11.68;;;;;;;18.84;56.07;95434.97;5088039;28;20103;-80
2023/09/02 05:12:27;;;;;;;13.00;10.70;;;;;;;18.96;56.15;95444.28;5087335;28;20675;-80
2023/09/02 05:14:52;;;;;;;13.82;11.35;;;;;;;18.96;56.28;95452.66;5088516;28;20049;-80
2023/09/02 05:17:18;;;;;;;12.48;11.18;;;;;;;18.98;55.65;95450.94;5086993;28;20016;-79
2023/09/02 05:19:43;;;;;;;13.23;11.68;;;;;;;19.01;56.07;95461.09;5088433;28;20055;-81
2023/09/02 05:22:09;;;;;;;15.57;11.55;;;;;;;19.04;55.90;95453.81;5086975;28;20487;-78
2023/09/02 05:24:34;;;;;;;13.27;11.48;;;;;;;19.05;55.69;95455.34;5087587;28;20055;-79
2023/09/02 05:27:00;;;;;;;12.38;11.02;;;;;;;19.08;55.81;95448.81;5087213;28;20024;-77
2023/09/02 05:29:25;;;;;;;12.90;10.90;;;;;;;19.13;55.65;95444.59;5087385;28;20030;-79
2023/09/02 05:31:51;;;;;;;15.07;11.98;;;;;;;19.15;55.13;95447.66;5087423;28;20028;-79
2023/09/02 05:34:16;;;;;;;13.20;10.77;;;;;;;19.15;55.35;95445.63;5086710;28;20107;-78
2023/09/02 05:36:41;;;;;;;13.70;10.73;;;;;;;19.18;55.53;95450.25;5087677;28;20020;-78
2023/09/02 05:39:07;;;;;;;13.13;10.68;;;;;;;19.19;55.25;95451.78;5086219;28;20111;-77
2023/09/02 05:41:33;;;;;;;11.32;9.73;;;;;;;19.22;55.17;95441.72;5069572;28;20024;-77
2023/09/02 05:43:58;;;;;;;11.50;10.20;;;;;;;19.29;55.23;95441.31;5086598;28;20027;-80
2023/09/02 05:46:24;;;;;;;13.10;10.93;;;;;;;19.32;54.92;95441.09;5087500;28;20020;-81
2023/09/02 05:48:49;;;;;;;13.15;10.25;;;;;;;19.36;54.79;95452.84;5067759;28;20539;-79
2023/09/02 05:51:15;;;;;;;13.77;10.30;;;;;;;19.42;54.79;95454.94;5087215;28;20031;-84
2023/09/02 05:53:40;;;;;;;14.07;10.77;;;;;;;19.46;55.03;95455.53;5087479;28;20020;-82
2023/09/02 05:56:05;;;;;;;12.50;11.07;;;;;;;19.52;54.78;95453.59;5085585;28;20543;-80
2023/09/02 05:58:31;;;;;;;13.43;10.73;;;;;;;19.55;54.90;95458.94;5087263;28;20032;-79
2023/09/02 06:01:03;;;;;;;10.95;9.77;;;;;;;19.60;54.80;95463.09;5085665;28;20448;-81
2023/09/02 06:03:28;;;;;;;13.65;10.68;;;;;;;19.66;54.87;95469.53;5087702;28;20425;-81
2023/09/02 06:05:54;;;;;;;13.95;10.45;;;;;;;19.70;54.95;95469.34;5086268;28;20102;-81
2023/09/02 06:08:19;;;;;;;13.48;11.05;;;;;;;19.72;54.79;95470.38;5086969;28;20020;-80
2023/09/02 06:10:55;;;;;;;12.52;10.90;;;;;;;19.74;54.42;95464.34;5050453;28;20024;-82
2023/09/02 06:13:21;;;;;;;13.25;9.70;;;;;;;19.78;54.46;95454.50;5086023;28;20508;-81
2023/09/02 06:15:46;;;;;;;12.32;10.25;;;;;;;19.92;54.21;95474.50;5087207;28;20036;-82
2023/09/02 06:18:12;;;;;;;12.65;10.70;;;;;;;19.95;54.03;95477.06;5085938;28;20047;-81
2023/09/02 06:20:37;;;;;;;11.68;10.48;;;;;;;20.04;54.11;95478.97;5087108;28;20444;-81
2023/09/02 06:23:02;;;;;;;13.10;10.15;;;;;;;20.10;53.98;95472.22;5087000;28;20025;-82
2023/09/02 06:25:28;;;;;;;11.70;9.52;;;;;;;20.13;53.32;95471.25;5092210;28;20040;-80
2023/09/02 06:27:53;;;;;;;11.25;9.95;;;;;;;20.20;53.06;95480.47;5101246;28;20077;-82
2023/09/02 06:30:19;;;;;;;13.07;10.23;;;;;;;20.25;53.05;95474.97;5099845;28;20083;-82
2023/09/02 06:32:44;;;;;;;10.93;9.23;;;;;;;20.29;53.07;95472.72;5070390;28;20039;-82
2023/09/02 06:35:14;;;;;;;12.27;10.43;;;;;;;20.39;52.82;95468.53;5068381;28;20465;-82
2023/09/02 06:37:40;;;;;;;15.23;10.35;;;;;;;20.43;52.48;95469.09;5087628;28;20787;-81
2023/09/02 06:40:06;;;;;;;10.55;9.27;;;;;;;20.42;52.44;95450.03;5086113;28;20288;-81
2023/09/02 06:42:32;;;;;;;10.70;8.65;;;;;;;20.61;52.10;95470.09;5087129;28;20414;-81
2023/09/02 06:44:57;;;;;;;9.02;7.97;;;;;;;20.75;50.57;95474.03;5086161;28;20024;-81
2023/09/02 06:47:23;;;;;;;10.25;8.50;;;;;;;20.77;50.36;95468.75;5086751;28;20513;-82
2023/09/02 06:49:49;;;;;;;9.63;8.50;;;;;;;20.83;50.64;95469.56;5087089;28;20624;-81
2023/09/02 06:52:14;;;;;;;10.55;9.30;;;;;;;20.89;50.42;95467.59;5086062;28;20020;-82
2023/09/02 06:54:40;;;;;;;9.82;8.70;;;;;;;21.01;49.96;95471.28;5068965;28;20123;-81
2023/09/02 06:57:05;;;;;;;10.55;8.55;;;;;;;21.09;49.85;95475.16;5085189;28;20020;-82
2023/09/02 06:59:33;;;;;;;10.43;8.60;;;;;;;21.15;50.42;95476.75;5086784;28;20032;-81
2023/09/02 07:01:58;;;;;;;10.38;8.57;;;;;;;21.28;49.53;95473.59;5085498;28;20016;-82
2023/09/02 07:04:24;;;;;;;9.60;8.52;;;;;;;21.40;49.20;95471.69;5086483;28;20028;-82
2023/09/02 07:06:49;;;;;;;8.95;7.78;;;;;;;21.42;49.46;95474.75;5067590;28;20028;-82
2023/09/02 07:09:14;;;;;;;9.43;8.43;;;;;;;21.47;49.37;95474.03;5086153;28;20031;-81
2023/09/02 07:11:40;;;;;;;9.98;8.98;;;;;;;21.56;49.18;95478.66;5086802;28;20518;-80
2023/09/02 07:14:05;;;;;;;10.27;8.45;;;;;;;21.67;48.83;95478.75;5084844;28;20034;-81
2023/09/02 07:16:31;;;;;;;10.98;8.70;;;;;;;21.79;48.68;95482.38;5086691;28;20024;-82
2023/09/02 07:18:58;;;;;;;12.07;9.07;;;;;;;21.88;48.09;95474.59;5084988;28;20039;-83
2023/09/02 07:21:24;;;;;;;9.90;8.90;;;;;;;21.99;48.15;95482.28;5086671;28;20036;-81
2023/09/02 07:23:51;;;;;;;10.30;8.85;;;;;;;22.05;47.92;95477.50;5066912;28;20048;-82
2023/09/02 07:26:17;;;;;;;11.55;8.45;;;;;;;22.16;47.67;95480.38;5086006;28;20032;-81
2023/09/02 07:28:42;;;;;;;10.70;8.65;;;;;;;22.18;47.57;95479.88;5068196;28;20498;-82
2023/09/02 07:31:12;;;;;;;9.57;8.40;;;;;;;22.25;47.61;95476.59;5084867;28;20020;-81
2023/09/02 07:33:37;;;;;;;11.75;9.82;;;;;;;22.37;47.41;95477.44;5086373;28;20031;-82
2023/09/02 07:36:10;;;;;;;12.15;9.82;;;;;;;22.44;46.96;95477.72;5084748;28;20036;-83
2023/09/02 07:38:36;;;;;;;9.70;8.70;;;;;;;22.48;47.06;95481.06;5051546;28;20141;-83
2023/09/02 07:41:02;;;;;;;10.52;8.50;;;;;;;22.58;46.50;95480.84;5084882;28;20035;-82
2023/09/02 07:43:27;;;;;;;9.68;8.68;;;;;;;22.66;46.46;95474.25;5085922;28;20020;-83
2023/09/02 07:45:54;;;;;;;9.45;8.32;;;;;;;22.72;46.90;95472.25;5086119;28;20050;-82
2023/09/02 07:48:19;;;;;;;9.43;7.57;;;;;;;22.88;46.18;95470.00;5085617;28;20153;-83
2023/09/02 07:50:45;;;;;;;11.43;8.70;;;;;;;22.98;45.50;95471.31;5086487;28;20103;-83
2023/09/02 07:53:10;;;;;;;9.68;8.63;;;;;;;23.00;45.31;95472.34;5084540;28;20051;-82
2023/09/02 07:55:36;;;;;;;10.27;8.05;;;;;;;23.14;45.14;95472.63;5086622;28;20035;-84
2023/09/02 07:58:01;;;;;;;8.63;7.72;;;;;;;23.23;44.43;95481.56;5084467;28;20108;-76
2023/09/02 08:00:28;;;;;;;10.25;7.88;;;;;;;23.31;44.99;95476.22;5085789;28;20023;-78
2023/09/02 08:02:54;;;;;;;9.95;7.82;;;;;;;23.45;44.76;95480.81;5085661;28;20034;-77
2023/09/02 08:05:19;;;;;;;9.95;8.93;;;;;;;23.64;44.11;95480.34;5085005;28;20393;-78
2023/09/02 08:07:45;;;;;;;10.18;9.02;;;;;;;23.71;44.11;95477.78;5085961;28;20031;-80
2023/09/02 08:10:10;;;;;;;9.52;8.32;;;;;;;23.82;43.77;95477.03;5084646;28;20020;-78
2023/09/02 08:12:36;;;;;;;10.38;8.75;;;;;;;23.96;43.48;95478.00;5070711;28;20031;-78
2023/09/02 08:15:01;;;;;;;9.35;8.35;;;;;;;24.02;43.25;95481.56;5087766;28;20035;-79
2023/09/02 08:17:27;;;;;;;8.43;7.03;;;;;;;24.20;42.57;95475.44;5089573;28;20823;-78
2023/09/02 08:19:52;;;;;;;9.07;7.10;;;;;;;24.31;42.74;95483.03;5088081;28;20032;-79
2023/09/02 08:22:18;;;;;;;7.13;6.32;;;;;;;24.47;41.78;95482.25;5089119;28;20448;-80
2023/09/02 08:24:43;;;;;;;8.18;6.82;;;;;;;24.62;41.23;95477.09;5088735;28;20483;-79
2023/09/02 08:27:09;;;;;;;11.48;6.85;;;;;;;24.82;40.61;95484.41;5088120;28;20593;-79
2023/09/02 08:29:34;;;;;;;8.63;6.78;;;;;;;24.99;40.72;95477.94;5089229;28;20138;-79
2023/09/02 08:32:00;;;;;;;7.50;6.40;;;;;;;25.10;40.63;95478.69;5087520;28;20032;-78
2023/09/02 08:34:26;;;;;;;8.85;6.13;;;;;;;25.30;39.40;95476.78;5071057;28;20024;-79
2023/09/02 08:36:51;;;;;;;9.98;6.03;;;;;;;25.49;39.31;95476.91;5087483;28;20473;-79
2023/09/02 08:39:16;;;;;;;7.40;5.88;;;;;;;25.64;39.21;95471.69;5088822;28;20032;-78
2023/09/02 08:41:44;;;;;;;8.02;5.70;;;;;;;25.82;38.96;95476.66;5069966;28;20408;-79
2023/09/02 08:44:10;;;;;;;7.32;5.22;;;;;;;26.04;38.05;95467.25;5088384;28;20024;-78
2023/09/02 08:46:40;;;;;;;8.48;6.15;;;;;;;26.26;37.57;95463.41;5088634;28;20024;-78
2023/09/02 08:49:05;;;;;;;6.10;5.50;;;;;;;26.44;37.18;95473.25;5069414;28;20034;-79
2023/09/02 08:51:33;;;;;;;6.40;5.80;;;;;;;26.67;36.78;95474.53;5089188;28;20024;-79
2023/09/02 08:53:59;;;;;;;6.63;5.82;;;;;;;26.91;36.17;95465.25;5087554;28;20055;-79
2023/09/02 08:56:25;;;;;;;8.95;5.57;;;;;;;27.14;36.20;95468.56;5088779;28;20071;-79
2023/09/02 08:58:52;;;;;;;7.50;5.32;;;;;;;27.35;35.85;95463.09;5069250;28;20036;-79
2023/09/02 09:01:19;;;;;;;6.68;5.00;;;;;;;27.63;35.18;95462.66;5088333;28;20028;-79
2023/09/02 09:03:49;;;;;;;6.13;5.03;;;;;;;27.88;34.84;95463.31;5088657;28;20085;-77
2023/09/02 09:06:16;;;;;;;5.80;5.20;;;;;;;28.07;34.54;95454.00;5087010;28;20028;-79
2023/09/02 09:08:42;;;;;;;10.70;5.45;;;;;;;28.31;34.00;95450.97;5070930;28;20050;-78
2023/09/02 09:11:09;;;;;;;7.35;5.88;;;;;;;28.55;33.56;95452.84;5086753;28;20089;-79
2023/09/02 09:13:35;;;;;;;6.40;5.43;;;;;;;28.81;33.03;95443.59;5088347;28;20017;-79
2023/09/02 09:16:01;;;;;;;5.35;4.82;;;;;;;29.01;32.98;95453.47;5068972;28;20093;-79
2023/09/02 09:18:27;;;;;;;7.07;5.72;;;;;;;29.26;32.07;95446.22;5069852;28;20355;-79
2023/09/02 09:20:53;;;;;;;7.22;5.18;;;;;;;29.45;32.04;95445.28;5069712;28;20016;-78
2023/09/02 09:23:19;;;;;;;7.65;5.25;;;;;;;29.62;31.84;95451.34;5086848;28;20420;-78
2023/09/02 09:25:49;;;;;;;6.72;5.47;;;;;;;29.77;30.90;95440.16;5070416;28;20141;-79
2023/09/02 09:28:14;;;;;;;5.70;4.88;;;;;;;29.96;30.73;95445.59;5085185;28;20378;-79
2023/09/02 09:30:40;;;;;;;6.43;5.40;;;;;;;30.15;31.22;95445.38;5088014;28;20024;-76
2023/09/02 09:33:06;;;;;;;6.35;5.75;;;;;;;30.40;30.05;95440.84;5067152;28;20039;-76
2023/09/02 09:35:33;;;;;;;6.40;5.45;;;;;;;30.64;30.43;95433.22;5087877;28;20125;-76
2023/09/02 09:37:58;;;;;;;7.90;4.93;;;;;;;30.87;30.11;95439.78;5086676;28;20482;-76
2023/09/02 09:40:31;;;;;;;6.60;5.07;;;;;;;31.14;29.66;95433.81;5087303;28;20049;-79
2023/09/02 09:42:58;;;;;;;10.00;5.70;;;;;;;31.43;28.75;95438.13;5088372;28;20017;-78
2023/09/02 09:45:24;;;;;;;5.93;5.15;;;;;;;31.61;28.83;95424.88;5085922;28;20406;-79
2023/09/02 09:47:49;;;;;;;7.35;5.57;;;;;;;31.83;28.32;95437.63;5088163;28;20020;-78
2023/09/02 09:50:16;;;;;;;7.93;5.40;;;;;;;32.06;27.56;95428.31;5086406;28;20137;-79
2023/09/02 09:53:05;;;;;;;8.63;5.00;;;;;;;32.29;27.83;95431.94;5087975;28;20022;-78
2023/09/02 09:55:31;;;;;;;8.15;4.90;;;;;;;32.43;27.37;95421.88;5086634;28;20103;-78
2023/09/02 09:57:57;;;;;;;13.55;11.10;;;;;;;32.67;27.00;95422.56;5086478;28;20039;-78
2023/09/02 10:00:23;;;;;;;29.00;19.88;;;;;;;32.88;26.91;95425.94;5070259;28;20110;-79
2023/09/02 10:02:51;;;;;;;14.18;12.38;;;;;;;33.09;26.63;95419.19;5091121;28;20052;-77
2023/09/02 10:05:25;;;;;;;33.75;25.55;;;;;;;33.36;26.40;95416.59;5076525;28;20505;-78
2023/09/02 10:07:58;;;;;;;29.23;24.05;;;;;;;33.54;25.70;95418.97;5087418;28;20040;-79
2023/09/02 10:10:35;;;;;;;11.93;10.40;;;;;;;33.83;25.35;95421.41;5069879;28;20024;-77
2023/09/02 10:13:02;;;;;;;61.72;48.13;;;;;;;34.03;25.34;95423.19;5087427;28;20035;-79
2023/09/02 10:15:28;;;;;;;8.20;6.50;;;;;;;34.18;24.34;95415.84;5085874;28;20028;-82
2023/09/02 10:18:01;;;;;;;30.90;27.52;;;;;;;34.16;24.55;95407.88;5087914;28;20024;-83
2023/09/02 10:20:29;;;;;;;34.25;25.67;;;;;;;34.33;24.43;95410.75;5068090;28;20131;-83
2023/09/02 10:23:06;;;;;;;5.57;4.28;;;;;;;34.59;23.70;95406.53;5088192;28;20027;-86
2023/09/02 10:25:52;;;;;;;27.67;23.27;;;;;;;34.67;24.39;95388.56;5068229;28;20407;-83
2023/09/02 10:28:21;;;;;;;15.45;13.32;;;;;;;34.94;24.09;95394.34;5089849;28;20035;-91
2023/09/02 10:30:48;;;;;;;103.82;9.98;;;;;;;35.01;23.05;95394.25;5071886;28;20365;-85
2023/09/02 10:33:33;;;;;;;32.63;11.60;;;;;;;35.18;23.65;95393.47;5072023;28;20052;-91
2023/09/02 10:36:03;;;;;;;11.05;8.82;;;;;;;35.44;23.57;95394.81;5072145;28;20460;-93
2023/09/02 10:38:32;;;;;;;6.82;5.32;;;;;;;35.71;21.92;95377.66;5087819;28;20024;-90
2023/09/02 10:41:11;;;;;;;8.77;6.80;;;;;;;36.10;21.67;95390.00;5069854;28;20046;-84
2023/09/02 10:43:37;;;;;;;9.27;6.53;;;;;;;36.43;21.37;95393.25;5087130;28;20503;-81
2023/09/02 10:46:03;;;;;;;5.75;4.30;;;;;;;36.79;20.42;95391.63;5067638;28;20055;-82
2023/09/02 10:48:29;;;;;;;5.70;4.93;;;;;;;37.12;20.26;95389.06;5068787;28;20059;-83
2023/09/02 10:50:55;;;;;;;4.10;3.70;;;;;;;37.27;19.15;95390.06;5051401;28;20111;-83
2023/09/02 10:53:53;;;;;;;6.97;3.58;;;;;;;37.69;18.83;95395.28;5068862;28;20714;-84
2023/09/02 10:56:27;;;;;;;6.18;3.90;;;;;;;38.24;18.31;95382.63;5092529;28;20024;-88
2023/09/02 10:58:53;;;;;;;4.68;3.70;;;;;;;38.76;17.21;95399.09;5086105;28;20490;-84
2023/09/02 11:01:18;;;;;;;5.47;4.03;;;;;;;39.12;17.68;95390.63;5087552;28;20085;-80
2023/09/02 11:03:47;;;;;;;3.92;3.30;;;;;;;39.81;16.71;95392.19;5085377;28;20107;-79
2023/09/02 11:06:15;;;;;;;3.58;3.05;;;;;;;40.44;14.89;95392.44;5086990;28;20380;-81
2023/09/02 11:08:53;;;;;;;6.00;3.00;;;;;;;40.84;15.13;95374.69;5085423;28;20479;-87
2023/09/02 11:11:19;;;;;;;4.28;3.20;;;;;;;40.94;15.19;95370.91;5087244;28;20500;-84
2023/09/02 11:14:07;;;;;;;4.45;3.20;;;;;;;41.33;15.16;95394.03;5086867;28;20025;-88
2023/09/02 11:16:38;;;;;;;3.53;3.22;;;;;;;41.85;14.24;95387.59;5084922;28;20024;-83
2023/09/02 11:19:08;;;;;;;4.38;3.38;;;;;;;42.33;14.08;95382.22;5068998;28;20097;-84
2023/09/02 11:21:42;;;;;;;3.58;3.10;;;;;;;42.60;14.03;95385.06;5051964;28;20039;-82
2023/09/02 11:24:16;;;;;;;6.70;3.45;;;;;;;42.03;14.64;95381.31;5086788;28;20056;-82
2023/09/02 11:26:58;;;;;;;6.90;4.88;;;;;;;40.97;14.81;95376.16;5086603;28;20036;-86